Time;durP1;ratioP1;P1;durP2;ratioP2;P2;SDS_P1;SDS_P2;PMS_P1;PMS_P2;Temp;Humidity;BMP_temperature;BMP_pressure;BME280_temperature;BME280_humidity;BME280_pressure;Samples;Min_cycle;Max_cycle;Signal;HPM_P1;HPM_P2
2024/02/20 00:00:06;;;;;;;7.47;3.13;;;;;;;8.14;100.00;101571.69;5002200;28;20100;-83
2024/02/20 00:02:33;;;;;;;3.55;1.95;;;;;;;8.16;100.00;101577.78;4978759;28;20053;-85
2024/02/20 00:05:00;;;;;;;3.90;3.30;;;;;;;8.15;100.00;101576.94;4982594;28;20045;-83
2024/02/20 00:07:27;;;;;;;6.25;2.70;;;;;;;8.13;100.00;101572.53;5007632;28;20037;-83
2024/02/20 00:09:53;;;;;;;3.97;2.72;;;;;;;8.06;100.00;101577.66;5006837;28;20050;-85
2024/02/20 00:12:20;;;;;;;7.13;3.10;;;;;;;8.14;100.00;101576.91;5004528;28;20500;-83
2024/02/20 00:14:47;;;;;;;3.78;3.30;;;;;;;8.06;100.00;101576.78;5012587;28;20050;-85
2024/02/20 00:17:13;;;;;;;6.57;3.10;;;;;;;8.09;100.00;101580.28;4979836;28;20038;-84
2024/02/20 00:19:40;;;;;;;4.72;2.95;;;;;;;8.04;100.00;101578.47;5017006;28;20085;-84
2024/02/20 00:22:06;;;;;;;6.13;3.17;;;;;;;8.09;100.00;101577.69;5026181;28;20802;-84
2024/02/20 00:24:33;;;;;;;4.00;3.35;;;;;;;8.04;100.00;101576.72;5002000;28;20065;-82
2024/02/20 00:26:59;;;;;;;5.75;2.88;;;;;;;8.06;100.00;101577.66;5023192;28;20068;-83
2024/02/20 00:29:26;;;;;;;3.35;2.90;;;;;;;8.03;100.00;101576.72;5019107;28;20049;-83
2024/02/20 00:31:52;;;;;;;3.97;2.15;;;;;;;8.00;100.00;101584.50;5048105;28;20060;-84
2024/02/20 00:34:19;;;;;;;4.63;2.63;;;;;;;7.98;100.00;101584.47;5014367;28;20041;-83
2024/02/20 00:36:46;;;;;;;5.57;2.33;;;;;;;7.99;100.00;101582.75;4999268;28;20045;-84
2024/02/20 00:39:14;;;;;;;6.10;2.78;;;;;;;7.98;100.00;101575.75;5000715;28;20105;-84
2024/02/20 00:41:40;;;;;;;4.47;2.30;;;;;;;7.99;100.00;101577.53;4994165;28;20050;-83
2024/02/20 00:44:07;;;;;;;6.60;2.08;;;;;;;7.95;100.00;101582.69;5003029;28;20064;-84
2024/02/20 00:46:33;;;;;;;6.20;2.75;;;;;;;7.92;100.00;101580.03;5016425;28;20563;-83
2024/02/20 00:49:00;;;;;;;11.38;2.35;;;;;;;7.93;100.00;101592.22;5024190;28;20076;-84
2024/02/20 00:51:27;;;;;;;7.82;2.83;;;;;;;7.92;100.00;101589.59;4997398;28;20042;-82
2024/02/20 00:53:53;;;;;;;12.55;4.78;;;;;;;7.92;100.00;101589.59;5027047;28;20533;-83
2024/02/20 00:56:20;;;;;;;8.63;3.08;;;;;;;7.86;100.00;101600.78;5001819;28;20081;-83
2024/02/20 00:58:47;;;;;;;17.45;4.05;;;;;;;7.86;100.00;101599.91;5031117;28;20080;-84
2024/02/20 01:01:14;;;;;;;7.38;2.78;;;;;;;7.87;100.00;101597.31;5006936;28;20123;-84
2024/02/20 01:03:42;;;;;;;8.02;2.83;;;;;;;7.84;100.00;101609.44;4997823;28;20046;-85
2024/02/20 01:06:11;;;;;;;9.50;3.08;;;;;;;7.86;100.00;101608.63;5025827;28;20407;-83
2024/02/20 01:08:38;;;;;;;7.78;2.38;;;;;;;7.85;100.00;101604.25;4992652;28;20081;-84
2024/02/20 01:11:05;;;;;;;2.60;2.33;;;;;;;7.81;100.00;101605.03;5016970;28;20053;-84
2024/02/20 01:13:33;;;;;;;6.13;2.85;;;;;;;7.81;100.00;101604.16;4999652;28;20068;-84
2024/02/20 01:16:00;;;;;;;5.75;2.70;;;;;;;7.81;100.00;101599.84;5018818;28;20657;-83
2024/02/20 01:18:26;;;;;;;5.63;2.80;;;;;;;7.76;100.00;101604.09;5010069;28;20485;-84
2024/02/20 01:20:55;;;;;;;5.60;3.10;;;;;;;7.73;100.00;101604.91;4998437;28;20060;-83
2024/02/20 01:23:22;;;;;;;7.38;2.72;;;;;;;7.72;100.00;101607.50;5014553;28;20544;-82
2024/02/20 01:25:49;;;;;;;4.95;2.75;;;;;;;7.67;100.00;101610.00;5014530;28;20128;-84
2024/02/20 01:28:15;;;;;;;4.03;2.60;;;;;;;7.71;100.00;101605.72;4999488;28;20415;-85
2024/02/20 01:30:43;;;;;;;9.48;2.50;;;;;;;7.73;100.00;101607.50;4997142;28;20049;-83
2024/02/20 01:33:10;;;;;;;6.88;2.33;;;;;;;7.73;100.00;101607.50;4997791;28;20049;-83
2024/02/20 01:35:38;;;;;;;6.93;2.92;;;;;;;7.75;100.00;101610.16;5023605;28;20048;-83
2024/02/20 01:38:06;;;;;;;8.80;2.45;;;;;;;7.73;100.00;101614.44;4989527;28;20041;-83
2024/02/20 01:40:32;;;;;;;14.80;3.88;;;;;;;7.77;100.00;101614.53;5000108;28;20445;-83
2024/02/20 01:43:01;;;;;;;10.32;3.17;;;;;;;7.77;100.00;101616.28;4998448;28;20129;-82
2024/02/20 01:45:30;;;;;;;7.60;2.38;;;;;;;7.71;100.00;101611.81;5002860;28;20107;-83
2024/02/20 01:47:57;;;;;;;7.65;2.75;;;;;;;7.73;100.00;101612.72;4994803;28;20051;-83
2024/02/20 01:50:27;;;;;;;9.60;2.83;;;;;;;7.69;100.00;101615.22;4999324;28;20051;-85
2024/02/20 01:52:54;;;;;;;13.68;3.50;;;;;;;7.69;100.00;101617.84;4977393;28;20109;-84
2024/02/20 01:55:20;;;;;;;7.47;2.40;;;;;;;7.69;100.00;101623.06;5020239;28;20065;-83
2024/02/20 01:57:48;;;;;;;11.43;2.47;;;;;;;7.67;100.00;101620.44;5036715;28;20050;-83
2024/02/20 02:00:15;;;;;;;6.72;2.60;;;;;;;7.71;100.00;101622.22;5001346;28;20870;-83
2024/02/20 02:02:46;;;;;;;10.18;2.95;;;;;;;7.74;100.00;101626.63;5020820;28;20497;-84
2024/02/20 02:05:12;;;;;;;11.90;3.75;;;;;;;7.74;100.00;101624.03;5006237;28;20104;-83
2024/02/20 02:07:39;;;;;;;6.75;3.20;;;;;;;7.72;100.00;101623.13;5024900;28;20080;-84
2024/02/20 02:10:06;;;;;;;8.95;3.75;;;;;;;7.74;100.00;101630.13;4997911;28;20053;-84
2024/02/20 02:12:33;;;;;;;13.63;3.67;;;;;;;7.70;100.00;101630.03;5030904;28;20144;-84
2024/02/20 02:14:59;;;;;;;6.90;3.20;;;;;;;7.69;100.00;101631.78;5028835;28;20059;-84
2024/02/20 02:17:26;;;;;;;15.55;3.60;;;;;;;7.69;100.00;101636.09;5001379;28;20119;-84
2024/02/20 02:19:52;;;;;;;12.65;4.00;;;;;;;7.61;100.00;101643.75;5021837;28;20103;-83
2024/02/20 02:22:19;;;;;;;13.13;2.63;;;;;;;7.61;100.00;101644.66;4997567;28;20050;-83
2024/02/20 02:24:45;;;;;;;11.20;2.88;;;;;;;7.59;100.00;101642.88;5013480;28;20065;-84
2024/02/20 02:27:12;;;;;;;6.30;2.30;;;;;;;7.59;100.00;101641.13;4985342;28;20052;-84
2024/02/20 02:29:41;;;;;;;12.52;3.53;;;;;;;7.58;100.00;101648.91;4989189;28;20045;-83
2024/02/20 02:32:10;;;;;;;13.73;3.28;;;;;;;7.57;100.00;101640.25;4980964;28;20038;-83
2024/02/20 02:34:37;;;;;;;7.22;2.40;;;;;;;7.61;100.00;101647.25;4998687;28;20050;-83
2024/02/20 02:37:04;;;;;;;10.27;3.58;;;;;;;7.63;100.00;101660.31;5030550;28;20443;-84
2024/02/20 02:39:32;;;;;;;13.88;2.83;;;;;;;7.62;100.00;101645.53;5016421;28;20691;-84
2024/02/20 02:41:59;;;;;;;6.63;2.70;;;;;;;7.65;100.00;101652.53;5020664;28;20143;-84
2024/02/20 02:44:26;;;;;;;10.52;2.40;;;;;;;7.61;100.00;101659.38;4997672;28;20044;-83
2024/02/20 02:46:52;;;;;;;14.90;3.47;;;;;;;7.58;100.00;101660.22;5016308;28;20053;-82
2024/02/20 02:49:20;;;;;;;8.48;4.38;;;;;;;7.60;100.00;101663.75;5017757;28;20060;-83
2024/02/20 02:51:47;;;;;;;20.63;4.75;;;;;;;7.54;100.00;101654.94;4999873;28;20054;-83
2024/02/20 02:54:13;;;;;;;17.25;3.60;;;;;;;7.48;100.00;101663.47;4988686;28;20049;-84
2024/02/20 02:56:40;;;;;;;12.90;3.00;;;;;;;7.48;100.00;101668.69;4996620;28;20135;-84
2024/02/20 02:59:08;;;;;;;17.23;3.42;;;;;;;7.43;100.00;101670.31;5024246;28;20064;-84
2024/02/20 03:01:35;;;;;;;15.57;3.35;;;;;;;7.43;100.00;101676.44;4991050;28;20482;-84
2024/02/20 03:04:01;;;;;;;13.32;3.28;;;;;;;7.43;100.00;101670.31;4978877;28;20056;-81
2024/02/20 03:06:28;;;;;;;17.33;4.30;;;;;;;7.44;100.00;101670.38;4997491;28;20052;-84
2024/02/20 03:08:55;;;;;;;18.58;3.97;;;;;;;7.44;100.00;101677.28;5018443;28;20113;-83
2024/02/20 03:11:21;;;;;;;16.02;4.05;;;;;;;7.44;100.00;101677.28;5017172;28;20157;-83
2024/02/20 03:13:48;;;;;;;12.40;4.07;;;;;;;7.45;100.00;101679.06;5025835;28;20080;-84
2024/02/20 03:16:15;;;;;;;18.83;4.50;;;;;;;7.45;100.00;101685.13;5002235;28;20128;-82
2024/02/20 03:18:44;;;;;;;19.75;3.47;;;;;;;7.42;100.00;101695.50;5031606;28;20135;-84
2024/02/20 03:21:10;;;;;;;12.52;3.78;;;;;;;7.46;100.00;101683.44;5012019;28;20056;-83
2024/02/20 03:23:37;;;;;;;15.77;3.63;;;;;;;7.44;100.00;101686.00;5012301;28;20129;-84
2024/02/20 03:26:04;;;;;;;21.48;5.00;;;;;;;7.47;100.00;101695.63;5024941;28;22106;-84
2024/02/20 03:28:31;;;;;;;13.15;3.60;;;;;;;7.48;100.00;101693.88;5031791;28;20045;-83
2024/02/20 03:30:58;;;;;;;20.88;4.82;;;;;;;7.43;100.00;101705.09;4995592;28;20053;-83
2024/02/20 03:33:26;;;;;;;20.42;4.53;;;;;;;7.43;100.00;101707.69;5032329;28;20048;-83
2024/02/20 03:35:52;;;;;;;19.17;4.55;;;;;;;7.44;100.00;101714.66;4997933;28;20045;-83
2024/02/20 03:38:20;;;;;;;16.83;4.25;;;;;;;7.43;100.00;101712.00;5017482;28;20122;-83
2024/02/20 03:40:47;;;;;;;30.95;5.25;;;;;;;7.47;100.00;101719.06;5031447;28;20072;-84
2024/02/20 03:43:13;;;;;;;19.67;4.78;;;;;;;7.42;100.00;101718.09;5014917;28;20057;-83
2024/02/20 03:45:40;;;;;;;18.88;3.97;;;;;;;7.38;100.00;101718.84;5026532;28;20049;-82
2024/02/20 03:48:07;;;;;;;16.15;3.45;;;;;;;7.34;100.00;101719.63;5019818;28;20467;-83
2024/02/20 03:50:34;;;;;;;17.75;5.38;;;;;;;7.41;100.00;101726.75;5014482;28;20176;-83
2024/02/20 03:53:05;;;;;;;20.50;4.35;;;;;;;7.41;100.00;101732.81;5014057;28;20465;-83
2024/02/20 03:55:31;;;;;;;19.23;4.55;;;;;;;7.42;100.00;101742.41;4996632;28;20107;-84
2024/02/20 03:58:01;;;;;;;11.20;4.50;;;;;;;7.41;100.00;101737.16;5028316;28;20053;-83
2024/02/20 04:00:30;;;;;;;17.60;3.15;;;;;;;7.33;100.00;101731.78;5001776;28;20037;-82
2024/02/20 04:02:57;;;;;;;21.38;4.07;;;;;;;7.34;100.00;101728.34;5015336;28;20054;-83
2024/02/20 04:05:24;;;;;;;17.33;3.42;;;;;;;7.38;100.00;101742.28;4977743;28;20108;-84
2024/02/20 04:07:51;;;;;;;17.33;4.18;;;;;;;7.39;100.00;101746.66;5001570;28;20132;-82
2024/02/20 04:10:18;;;;;;;12.63;3.97;;;;;;;7.38;100.00;101748.38;5006008;28;20472;-83
2024/02/20 04:12:46;;;;;;;18.08;3.72;;;;;;;7.33;100.00;101739.59;5000187;28;20042;-85
2024/02/20 04:15:14;;;;;;;22.30;5.95;;;;;;;7.34;100.00;101746.56;4991197;28;20054;-83
2024/02/20 04:17:41;;;;;;;25.42;6.03;;;;;;;7.31;100.00;101743.88;4997950;28;20041;-84
2024/02/20 04:20:10;;;;;;;14.75;4.43;;;;;;;7.31;100.00;101756.91;5043093;28;20059;-82
2024/02/20 04:22:38;;;;;;;19.00;4.15;;;;;;;7.29;100.00;101756.88;5028636;28;20570;-82
2024/02/20 04:25:06;;;;;;;26.77;4.50;;;;;;;7.26;100.00;101766.34;5047806;28;20398;-84
2024/02/20 04:27:34;;;;;;;22.42;5.40;;;;;;;7.20;100.00;101767.09;5001000;28;20045;-83
2024/02/20 04:30:00;;;;;;;15.93;4.40;;;;;;;7.25;100.00;101777.63;5006024;28;20042;-85
2024/02/20 04:32:27;;;;;;;19.75;3.70;;;;;;;7.27;100.00;101775.91;5025226;28;20041;-86
2024/02/20 04:34:54;;;;;;;22.58;5.38;;;;;;;7.30;100.00;101778.63;4991169;28;20037;-84
2024/02/20 04:37:20;;;;;;;23.63;4.18;;;;;;;7.31;100.00;101776.88;4995688;28;20484;-83
2024/02/20 04:39:47;;;;;;;27.05;4.10;;;;;;;7.29;100.00;101775.09;5032194;28;20041;-85
2024/02/20 04:42:14;;;;;;;20.02;5.63;;;;;;;7.28;100.00;101780.28;5012153;28;20050;-84
2024/02/20 04:44:40;;;;;;;23.35;4.60;;;;;;;7.23;100.00;101782.78;5011327;28;20136;-83
2024/02/20 04:47:10;;;;;;;18.83;4.22;;;;;;;7.23;100.00;101777.56;4993238;28;20716;-83
2024/02/20 04:49:36;;;;;;;22.15;3.83;;;;;;;7.25;100.00;101785.44;5021667;28;20136;-82
2024/02/20 04:52:10;;;;;;;20.77;4.20;;;;;;;7.28;100.00;101788.09;5032615;28;20049;-83
2024/02/20 04:54:37;;;;;;;21.85;3.63;;;;;;;7.32;100.00;101789.94;5012127;28;20129;-84
2024/02/20 04:57:04;;;;;;;18.17;4.90;;;;;;;7.34;100.00;101784.75;5036001;28;20057;-82
2024/02/20 04:59:30;;;;;;;24.77;4.30;;;;;;;7.24;100.00;101791.47;5025668;28;20396;-85
2024/02/20 05:01:57;;;;;;;22.58;4.70;;;;;;;7.20;100.00;101793.13;5027779;28;20069;-84
2024/02/20 05:04:24;;;;;;;25.33;5.55;;;;;;;7.18;100.00;101793.94;4997864;28;20049;-83
2024/02/20 05:06:50;;;;;;;21.25;4.80;;;;;;;7.12;100.00;101803.38;5032541;28;20092;-84
2024/02/20 05:09:17;;;;;;;32.22;5.82;;;;;;;7.12;100.00;101798.16;5030620;28;20075;-85
2024/02/20 05:11:43;;;;;;;36.10;6.90;;;;;;;7.15;100.00;101802.56;5023458;28;20532;-83
2024/02/20 05:14:10;;;;;;;24.80;5.45;;;;;;;7.18;100.00;101810.44;5019858;28;20040;-83
2024/02/20 05:16:37;;;;;;;25.02;5.20;;;;;;;7.17;100.00;101799.97;5006374;28;20049;-83
2024/02/20 05:19:04;;;;;;;22.92;4.85;;;;;;;7.19;100.00;101801.78;5009107;28;20430;-84
2024/02/20 05:21:30;;;;;;;29.38;5.43;;;;;;;7.19;100.00;101807.00;4995719;28;20074;-86
2024/02/20 05:23:57;;;;;;;30.52;5.60;;;;;;;7.18;100.00;101800.00;4988675;28;20734;-82
2024/02/20 05:26:23;;;;;;;26.02;6.70;;;;;;;7.15;100.00;101801.69;4979455;28;20069;-83
2024/02/20 05:28:54;;;;;;;33.88;5.28;;;;;;;7.16;100.00;101800.81;4970639;28;20141;-84
2024/02/20 05:31:32;;;;;;;16.10;4.90;;;;;;;7.17;100.00;101800.88;4994965;28;20133;-83
2024/02/20 05:34:01;;;;;;;30.10;5.28;;;;;;;7.12;100.00;101792.94;4975212;28;20054;-82
2024/02/20 05:36:33;;;;;;;24.65;5.57;;;;;;;7.07;100.00;101799.78;4974766;28;20122;-82
2024/02/20 05:39:00;;;;;;;31.20;5.25;;;;;;;7.05;100.00;101805.78;4973530;28;20050;-82
2024/02/20 05:41:28;;;;;;;23.10;7.03;;;;;;;7.02;100.00;101805.72;4978677;28;20406;-82
2024/02/20 05:43:57;;;;;;;22.23;4.78;;;;;;;6.97;100.00;101808.19;4990258;28;20038;-82
2024/02/20 05:46:29;;;;;;;25.92;4.50;;;;;;;6.98;100.00;101812.56;4990289;28;20056;-83
2024/02/20 05:48:56;;;;;;;27.17;5.85;;;;;;;6.97;100.00;101808.19;4988909;28;20066;-83
2024/02/20 05:51:31;;;;;;;31.75;5.63;;;;;;;6.93;100.00;101804.63;4990720;28;20050;-83
2024/02/20 05:53:59;;;;;;;22.35;6.80;;;;;;;6.88;100.00;101807.97;4968664;28;20054;-83
2024/02/20 05:56:31;;;;;;;28.98;5.75;;;;;;;6.87;100.00;101808.81;4981938;28;20048;-84
2024/02/20 05:58:58;;;;;;;29.42;5.90;;;;;;;6.82;100.00;101821.72;4989750;28;20633;-83
2024/02/20 06:01:25;;;;;;;20.60;5.03;;;;;;;6.82;100.00;101818.22;4993449;28;20048;-82
2024/02/20 06:03:53;;;;;;;26.35;6.03;;;;;;;6.78;100.00;101825.09;4988136;28;20043;-84
2024/02/20 06:06:21;;;;;;;24.02;4.30;;;;;;;6.69;100.00;101817.03;5001288;28;20056;-84
2024/02/20 06:08:49;;;;;;;20.20;5.75;;;;;;;6.75;100.00;101827.59;4993135;28;20041;-83
2024/02/20 06:11:22;;;;;;;22.15;6.68;;;;;;;6.74;100.00;101833.63;4975232;28;20045;-85
2024/02/20 06:13:50;;;;;;;30.33;6.22;;;;;;;6.81;100.00;101838.19;5005203;28;20820;-81
2024/02/20 06:16:16;;;;;;;29.42;5.30;;;;;;;6.82;100.00;101834.75;4982977;28;20097;-82
2024/02/20 06:19:00;;;;;;;30.00;6.63;;;;;;;6.84;100.00;101848.66;4975759;28;20163;-84
2024/02/20 06:21:28;;;;;;;21.08;4.82;;;;;;;6.76;100.00;101835.44;4991696;28;20504;-83
2024/02/20 06:23:55;;;;;;;26.10;5.63;;;;;;;6.77;100.00;101844.16;4978296;28;20470;-83
2024/02/20 06:26:22;;;;;;;29.15;4.97;;;;;;;6.70;100.00;101839.63;4998580;28;20046;-84
2024/02/20 06:28:49;;;;;;;22.00;5.45;;;;;;;6.68;100.00;101842.19;4980824;28;20048;-84
2024/02/20 06:31:19;;;;;;;29.98;6.03;;;;;;;6.62;100.00;101850.72;4979020;28;20058;-83
2024/02/20 06:33:49;;;;;;;18.60;4.60;;;;;;;6.65;100.00;101856.81;4990764;28;20129;-84
2024/02/20 06:36:16;;;;;;;23.92;4.50;;;;;;;6.64;100.00;101865.50;4975044;28;20482;-83
2024/02/20 06:38:59;;;;;;;19.75;4.85;;;;;;;6.65;100.00;101873.34;4974433;28;20129;-84
2024/02/20 06:41:27;;;;;;;21.88;7.10;;;;;;;6.65;100.00;101881.16;4987800;28;20058;-83
2024/02/20 06:43:55;;;;;;;28.38;5.70;;;;;;;6.66;100.00;101877.66;4994323;28;20042;-83
2024/02/20 06:46:23;;;;;;;26.23;5.15;;;;;;;6.72;100.00;101880.44;4991502;28;20053;-83
2024/02/20 06:48:50;;;;;;;29.25;5.50;;;;;;;6.73;100.00;101876.16;4992836;28;20697;-81
2024/02/20 06:51:21;;;;;;;22.42;6.15;;;;;;;6.75;100.00;101882.25;5011585;28;20038;-82
2024/02/20 06:53:49;;;;;;;23.75;4.55;;;;;;;6.77;100.00;101877.97;4997902;28;20046;-82
2024/02/20 06:56:17;;;;;;;28.35;5.75;;;;;;;6.75;100.00;101877.94;5013100;28;20806;-84
2024/02/20 06:58:44;;;;;;;27.63;6.70;;;;;;;6.72;100.00;101880.44;4987188;28;20054;-84
2024/02/20 07:01:11;;;;;;;35.88;5.32;;;;;;;6.77;100.00;101876.25;4980766;28;20325;-83
2024/02/20 07:03:38;;;;;;;33.88;6.88;;;;;;;6.77;100.00;101877.97;4980604;28;20793;-85
2024/02/20 07:06:05;;;;;;;27.17;6.13;;;;;;;6.80;100.00;101883.25;4981152;28;20050;-83
2024/02/20 07:08:34;;;;;;;23.30;4.97;;;;;;;6.78;100.00;101879.75;4993397;28;20142;-83
2024/02/20 07:11:01;;;;;;;20.58;4.97;;;;;;;6.82;100.00;101884.19;4987301;28;20763;-84
2024/02/20 07:13:28;;;;;;;21.90;5.35;;;;;;;6.76;100.00;101877.09;4987090;28;20050;-83
2024/02/20 07:15:54;;;;;;;27.25;6.43;;;;;;;6.77;100.00;101877.97;4983166;28;20081;-85
2024/02/20 07:18:21;;;;;;;27.23;6.35;;;;;;;6.79;100.00;101881.50;4983872;28;20557;-84
2024/02/20 07:20:51;;;;;;;21.98;7.05;;;;;;;6.76;100.00;101884.03;5030886;28;20050;-83
2024/02/20 07:23:18;;;;;;;31.92;8.57;;;;;;;6.76;100.00;101884.88;5017380;28;20049;-84
2024/02/20 07:25:44;;;;;;;30.17;7.50;;;;;;;6.74;100.00;101885.69;5036830;28;20091;-83
2024/02/20 07:28:12;;;;;;;24.45;5.22;;;;;;;6.77;100.00;101881.44;5028147;28;20152;-84
2024/02/20 07:30:38;;;;;;;24.23;8.10;;;;;;;6.81;100.00;101884.16;5022462;28;20045;-84
2024/02/20 07:33:05;;;;;;;38.78;7.75;;;;;;;6.86;100.00;101887.75;5033559;28;20087;-84
2024/02/20 07:35:32;;;;;;;26.83;7.38;;;;;;;6.92;100.00;101894.00;5001947;28;20046;-83
2024/02/20 07:37:58;;;;;;;37.15;5.90;;;;;;;7.02;100.00;101881.22;5037434;28;20045;-85
2024/02/20 07:40:25;;;;;;;24.33;6.43;;;;;;;7.08;100.00;101884.00;4995954;28;20064;-83
2024/02/20 07:42:55;;;;;;;30.38;6.38;;;;;;;7.18;100.00;101877.28;5042722;28;20068;-83
2024/02/20 07:45:22;;;;;;;26.92;6.22;;;;;;;7.23;100.00;101867.84;4997200;28;20405;-84
2024/02/20 07:47:49;;;;;;;24.85;5.32;;;;;;;7.31;100.00;101879.31;5029892;28;20045;-82
2024/02/20 07:50:17;;;;;;;26.38;6.32;;;;;;;7.32;100.00;101878.50;5035343;28;20084;-84
2024/02/20 07:52:45;;;;;;;24.13;7.35;;;;;;;7.27;100.00;101890.53;5040105;28;20053;-84
2024/02/20 07:55:13;;;;;;;30.30;8.13;;;;;;;7.29;100.00;101886.25;5001991;28;20052;-83
2024/02/20 07:57:40;;;;;;;25.55;6.22;;;;;;;7.21;100.00;101888.66;5015223;28;20458;-84
2024/02/20 08:00:11;;;;;;;25.55;6.80;;;;;;;7.16;100.00;101887.66;5016344;28;20052;-86
2024/02/20 08:02:38;;;;;;;29.52;7.10;;;;;;;7.19;100.00;101890.31;5050090;28;20503;-84
2024/02/20 08:05:11;;;;;;;39.75;7.72;;;;;;;7.26;100.00;101896.56;5007442;28;20402;-85
2024/02/20 08:07:38;;;;;;;27.93;7.07;;;;;;;7.24;100.00;101890.47;5012995;28;20045;-84
2024/02/20 08:10:13;;;;;;;33.35;8.13;;;;;;;7.23;100.00;101906.91;5030810;28;20085;-83
2024/02/20 08:12:43;;;;;;;35.72;8.20;;;;;;;7.21;100.00;101893.88;5014740;28;20041;-83
2024/02/20 08:15:09;;;;;;;52.95;8.25;;;;;;;7.12;100.00;101886.69;5032675;28;20560;-83
2024/02/20 08:17:37;;;;;;;33.85;6.75;;;;;;;7.11;100.00;101894.47;5034419;28;20437;-84
2024/02/20 08:20:05;;;;;;;32.47;7.90;;;;;;;7.15;100.00;101883.28;5036354;28;20061;-84
2024/02/20 08:22:34;;;;;;;33.15;9.95;;;;;;;7.30;100.00;101888.00;5018481;28;20131;-84
2024/02/20 08:25:11;;;;;;;49.05;8.52;;;;;;;7.31;100.00;101887.13;4996669;28;20053;-83
2024/02/20 08:27:38;;;;;;;28.00;8.20;;;;;;;7.39;100.00;101892.53;5028466;28;20049;-83
2024/02/20 08:30:10;;;;;;;38.38;9.50;;;;;;;7.44;100.00;101891.81;5036165;28;20155;-84
2024/02/20 08:32:43;;;;;;;53.97;12.32;;;;;;;7.69;100.00;101894.09;4997864;28;20132;-84
2024/02/20 08:35:10;;;;;;;33.85;8.65;;;;;;;7.56;100.00;101887.72;4996384;28;20138;-84
2024/02/20 08:37:39;;;;;;;31.10;7.80;;;;;;;7.63;100.00;101892.25;4999253;28;20504;-82
2024/02/20 08:40:09;;;;;;;28.45;7.93;;;;;;;7.80;100.00;101892.63;5028722;28;20049;-84
2024/02/20 08:42:36;;;;;;;25.20;7.05;;;;;;;7.96;100.00;101891.22;5019985;28;20053;-83
2024/02/20 08:45:05;;;;;;;34.90;8.95;;;;;;;7.89;100.00;101891.97;4997890;28;20076;-83
2024/02/20 08:47:32;;;;;;;35.85;7.82;;;;;;;7.99;100.00;101888.72;4992918;28;20056;-83
2024/02/20 08:49:59;;;;;;;32.80;7.72;;;;;;;7.90;100.00;101897.22;5014894;28;20048;-82
2024/02/20 08:52:25;;;;;;;30.92;7.85;;;;;;;7.86;100.00;101897.09;5030255;28;20045;-83
2024/02/20 08:54:52;;;;;;;23.45;6.53;;;;;;;7.79;100.00;101890.88;4997247;28;20045;-83
2024/02/20 08:57:18;;;;;;;20.20;6.13;;;;;;;7.97;100.00;101894.75;4999343;28;20099;-84
2024/02/20 08:59:47;;;;;;;92.03;13.60;;;;;;;8.04;100.00;101886.19;5001240;28;20575;-84
2024/02/20 09:02:15;;;;;;;29.58;5.80;;;;;;;7.91;100.00;101877.22;5001680;28;20072;-82
2024/02/20 09:04:42;;;;;;;18.75;6.35;;;;;;;7.85;100.00;101877.06;5003513;28;20063;-82
2024/02/20 09:07:09;;;;;;;72.82;13.77;;;;;;;7.92;100.00;101866.81;5010240;28;20069;-85
2024/02/20 09:09:37;;;;;;;20.73;4.40;;;;;;;7.98;100.00;101884.34;5055715;28;20037;-84
2024/02/20 09:12:04;;;;;;;25.13;5.25;;;;;;;8.07;100.00;101878.41;4998672;28;20048;-87
2024/02/20 09:14:31;;;;;;;26.92;6.38;;;;;;;8.12;100.00;101871.56;5000728;28;20049;-84
2024/02/20 09:17:00;;;;;;;28.95;6.43;;;;;;;8.17;100.00;101877.75;5029373;28;20048;-85
2024/02/20 09:19:30;;;;;;;28.85;5.20;;;;;;;8.18;100.00;101878.66;5041940;28;20048;-85
2024/02/20 09:21:57;;;;;;;21.67;4.05;;;;;;;8.24;100.00;101870.97;5020656;28;20065;-83
2024/02/20 09:24:23;;;;;;;25.75;4.93;;;;;;;8.33;100.00;101868.53;5022282;28;20103;-83
2024/02/20 09:26:50;;;;;;;29.98;6.60;;;;;;;8.41;100.00;101864.34;5025220;28;20041;-84
2024/02/20 09:29:18;;;;;;;20.00;5.50;;;;;;;8.58;100.00;101861.22;5028491;28;20083;-82
2024/02/20 09:31:45;;;;;;;22.23;5.82;;;;;;;8.66;100.00;101864.84;5035960;28;20048;-83
2024/02/20 09:34:11;;;;;;;29.58;6.43;;;;;;;8.62;100.00;101860.41;5037447;28;20059;-83
2024/02/20 09:36:38;;;;;;;28.27;6.25;;;;;;;8.64;100.00;101871.75;5015354;28;20099;-84
2024/02/20 09:39:08;;;;;;;22.73;6.13;;;;;;;8.63;100.00;101871.72;5023787;28;20037;-84
2024/02/20 09:41:39;;;;;;;16.85;4.97;;;;;;;8.70;100.00;101869.25;5008674;28;20112;-83
2024/02/20 09:44:05;;;;;;;29.77;7.30;;;;;;;8.67;100.00;101868.31;5016322;28;20096;-84
2024/02/20 09:46:42;;;;;;;25.70;5.32;;;;;;;8.73;100.00;101871.91;5014825;28;20073;-83
2024/02/20 09:49:10;;;;;;;20.67;4.60;;;;;;;8.80;100.00;101867.72;5027234;28;20060;-84
2024/02/20 09:51:39;;;;;;;24.92;5.82;;;;;;;8.93;100.00;101874.91;5025750;28;20072;-83
2024/02/20 09:54:06;;;;;;;13.73;6.13;;;;;;;8.98;100.00;101868.88;5009653;28;20128;-84
2024/02/20 09:56:40;;;;;;;22.88;4.30;;;;;;;9.01;100.00;101874.13;5008532;28;20068;-84
2024/02/20 09:59:07;;;;;;;19.02;4.72;;;;;;;9.13;100.00;101873.50;4994740;28;20041;-83
2024/02/20 10:01:35;;;;;;;19.40;5.13;;;;;;;9.19;100.00;101879.69;5025697;28;20056;-83
2024/02/20 10:04:09;;;;;;;20.40;4.40;;;;;;;9.07;100.00;101874.25;5011085;28;20152;-84
2024/02/20 10:06:36;;;;;;;;;;;;;;;9.04;100.00;101876.81;5013982;28;20045;-83
2024/02/20 10:09:05;;;;;;;16.05;4.82;;;;;;;9.16;100.00;101878.75;5038333;28;20007;-82
2024/02/20 10:11:36;;;;;;;30.73;6.00;;;;;;;9.38;100.00;101877.38;5041271;28;20037;-82
2024/02/20 10:14:04;;;;;;;24.38;5.88;;;;;;;9.70;100.00;101874.34;5027286;28;20056;-84
2024/02/20 10:16:30;;;;;;;26.60;4.82;;;;;;;9.88;100.00;101881.56;5006035;28;20056;-85
2024/02/20 10:19:04;;;;;;;11.05;4.20;;;;;;;9.94;100.00;101884.28;5046051;28;20411;-83
2024/02/20 10:21:32;;;;;;;14.32;3.30;;;;;;;10.09;100.00;101876.63;5017412;28;20190;-85
2024/02/20 10:24:08;;;;;;;16.08;3.22;;;;;;;9.98;100.00;101874.75;5021193;28;20084;-85
2024/02/20 10:26:37;;;;;;;10.98;3.58;;;;;;;9.96;100.00;101866.88;5011381;28;20052;-84
2024/02/20 10:29:11;;;;;;;17.70;3.85;;;;;;;10.31;100.00;101860.31;5019606;28;20473;-83
2024/02/20 10:31:39;;;;;;;12.75;3.53;;;;;;;10.57;100.00;101858.91;5005145;28;20501;-83
2024/02/20 10:34:05;;;;;;;18.13;4.10;;;;;;;10.43;100.00;101850.91;5011633;28;20053;-82
2024/02/20 10:36:32;;;;;;;18.92;3.88;;;;;;;10.48;99.04;101866.66;4985222;28;20046;-82
2024/02/20 10:39:10;;;;;;;16.60;4.10;;;;;;;10.81;97.73;101869.59;4996781;28;20072;-84
2024/02/20 10:41:40;;;;;;;16.83;4.68;;;;;;;10.90;94.97;101857.47;5017547;28;20045;-83
2024/02/20 10:44:07;;;;;;;21.40;4.18;;;;;;;10.99;94.90;101861.03;4993437;28;20562;-82
2024/02/20 10:46:40;;;;;;;12.50;3.85;;;;;;;10.84;94.96;101862.66;4999560;28;20072;-82
2024/02/20 10:49:30;;;;;;;13.70;3.20;;;;;;;10.82;94.89;101861.78;5005537;28;20601;-83
2024/02/20 10:51:57;;;;;;;15.98;4.07;;;;;;;10.68;95.85;101868.63;4994417;28;20061;-82
2024/02/20 10:54:26;;;;;;;25.60;4.40;;;;;;;10.59;96.60;101861.53;4999286;28;20041;-82
2024/02/20 10:56:55;;;;;;;13.60;3.80;;;;;;;10.61;96.48;101865.03;5007010;28;20056;-83
2024/02/20 10:59:24;;;;;;;14.20;3.95;;;;;;;10.55;98.10;101862.38;5017882;28;20088;-83
2024/02/20 11:01:50;;;;;;;14.70;3.58;;;;;;;10.59;96.69;101854.53;5042073;28;20045;-82
2024/02/20 11:04:19;;;;;;;16.38;3.50;;;;;;;10.59;96.81;101853.69;4999731;28;20057;-84
2024/02/20 11:06:49;;;;;;;17.83;4.65;;;;;;;10.41;98.09;101859.59;5010128;28;20563;-84
2024/02/20 11:09:15;;;;;;;23.85;6.75;;;;;;;10.19;99.38;101861.91;5025761;28;20119;-82
2024/02/20 11:11:44;;;;;;;15.73;4.20;;;;;;;10.10;100.00;101851.34;4996167;28;20046;-84
2024/02/20 11:14:10;;;;;;;12.93;3.90;;;;;;;10.16;100.00;101840.97;5007739;28;20423;-82
2024/02/20 11:16:40;;;;;;;14.77;3.78;;;;;;;10.10;100.00;101839.16;5014684;28;20120;-83
2024/02/20 11:19:07;;;;;;;20.98;4.15;;;;;;;9.84;100.00;101828.38;5023380;28;20140;-85
2024/02/20 11:21:34;;;;;;;23.52;4.00;;;;;;;9.79;100.00;101842.22;5006583;28;20085;-84